Time;durP1;ratioP1;P1;durP2;ratioP2;P2;SDS_P1;SDS_P2;PMS_P1;PMS_P2;Temp;Humidity;BMP_temperature;BMP_pressure;BME280_temperature;BME280_humidity;BME280_pressure;Samples;Min_cycle;Max_cycle;Signal;HPM_P1;HPM_P2
2024/01/28 00:01:15;;;;;;;21.70;8.10;;;;;;;2.05;100.00;103301.47;4970021;28;20194;-41
2024/01/28 00:03:40;;;;;;;22.85;8.60;;;;;;;2.02;100.00;103293.44;4952687;28;20189;-43
2024/01/28 00:06:06;;;;;;;22.58;9.70;;;;;;;2.00;100.00;103298.66;4953432;28;20743;-42
2024/01/28 00:08:31;;;;;;;25.98;8.60;;;;;;;1.96;100.00;103293.19;4971198;28;20274;-42
2024/01/28 00:10:57;;;;;;;24.00;7.55;;;;;;;1.94;100.00;103285.19;4953166;28;20585;-38
2024/01/28 00:13:25;;;;;;;23.70;8.23;;;;;;;1.90;100.00;103280.63;4971350;28;20656;-40
2024/01/28 00:15:54;;;;;;;20.58;9.07;;;;;;;1.92;100.00;103286.88;4969946;28;20204;-39
2024/01/28 00:18:20;;;;;;;22.77;8.30;;;;;;;1.88;100.00;103287.63;4971708;28;20214;-40
2024/01/28 00:20:46;;;;;;;22.40;9.50;;;;;;;1.88;100.00;103281.41;4971315;28;20189;-38
2024/01/28 00:23:12;;;;;;;26.20;8.68;;;;;;;1.84;100.00;103294.53;4952725;28;20174;-40
2024/01/28 00:25:37;;;;;;;25.08;8.55;;;;;;;1.89;100.00;103285.88;4970538;28;20197;-42
2024/01/28 00:28:04;;;;;;;19.92;8.10;;;;;;;1.82;100.00;103290.94;4973574;28;20178;-41
2024/01/28 00:30:32;;;;;;;31.85;9.65;;;;;;;1.80;100.00;103292.63;4953390;28;20233;-43
2024/01/28 00:33:00;;;;;;;21.52;8.43;;;;;;;1.75;100.00;103282.69;4970913;28;20181;-42
2024/01/28 00:35:25;;;;;;;23.23;9.65;;;;;;;1.75;100.00;103282.69;4970197;28;20971;-43
2024/01/28 00:37:54;;;;;;;29.48;8.82;;;;;;;1.68;100.00;103285.97;4971175;28;20181;-39
2024/01/28 00:40:20;;;;;;;19.92;9.60;;;;;;;1.67;100.00;103277.16;4970001;28;20629;-41
2024/01/28 00:42:46;;;;;;;26.25;9.27;;;;;;;1.58;100.00;103285.63;4972268;28;21116;-40
2024/01/28 00:45:11;;;;;;;19.52;9.45;;;;;;;1.61;100.00;103279.53;4970581;28;20610;-43
2024/01/28 00:47:39;;;;;;;31.17;9.77;;;;;;;1.58;100.00;103275.06;4972208;28;20218;-40
2024/01/28 00:50:06;;;;;;;24.85;8.82;;;;;;;1.59;100.00;103268.03;4970792;28;20570;-39
2024/01/28 00:52:32;;;;;;;29.23;10.00;;;;;;;1.65;100.00;103266.50;4970081;28;20244;-41
2024/01/28 00:54:57;;;;;;;18.08;8.32;;;;;;;1.70;100.00;103260.50;4970253;28;20182;-40
2024/01/28 00:57:23;;;;;;;26.77;9.60;;;;;;;1.44;100.00;103257.75;4972036;28;20193;-39
2024/01/28 00:59:48;;;;;;;26.13;10.05;;;;;;;1.47;100.00;103260.53;4970093;28;20228;-42
2024/01/28 01:02:14;;;;;;;29.30;9.73;;;;;;;1.46;100.00;103264.00;4969197;28;20185;-42
2024/01/28 01:04:40;;;;;;;26.00;10.45;;;;;;;1.44;100.00;103266.59;4969415;28;20723;-41
2024/01/28 01:07:05;;;;;;;20.98;8.75;;;;;;;1.46;100.00;103257.81;4970809;28;20186;-42
2024/01/28 01:09:31;;;;;;;20.30;8.73;;;;;;;1.41;100.00;103258.53;4951435;28;20219;-39
2024/01/28 01:11:56;;;;;;;25.85;9.20;;;;;;;1.36;100.00;103256.59;4969556;28;20186;-40
2024/01/28 01:14:22;;;;;;;24.92;10.73;;;;;;;1.32;100.00;103268.75;4969491;28;20190;-42
2024/01/28 01:16:47;;;;;;;19.85;8.60;;;;;;;1.33;100.00;103251.16;4969711;28;20255;-41
2024/01/28 01:19:13;;;;;;;39.20;9.32;;;;;;;1.28;100.00;103272.13;4971251;28;20205;-41
2024/01/28 01:21:38;;;;;;;16.20;8.38;;;;;;;1.30;100.00;103264.25;4971462;28;20679;-42
2024/01/28 01:24:04;;;;;;;22.05;8.48;;;;;;;1.28;100.00;103260.66;4969476;28;20261;-41
2024/01/28 01:26:29;;;;;;;26.65;9.13;;;;;;;1.26;100.00;103254.41;4970120;28;20202;-38
2024/01/28 01:28:55;;;;;;;16.42;8.80;;;;;;;1.24;100.00;103249.97;4971905;28;21523;-40
2024/01/28 01:31:20;;;;;;;30.23;8.90;;;;;;;1.19;100.00;103248.00;4967429;28;20205;-41
2024/01/28 01:33:46;;;;;;;26.42;9.82;;;;;;;1.22;100.00;103241.09;4969400;28;20559;-40
2024/01/28 01:36:12;;;;;;;22.25;8.85;;;;;;;1.17;100.00;103225.91;4969648;28;20276;-40
2024/01/28 01:38:39;;;;;;;18.40;8.98;;;;;;;1.11;100.00;103236.22;4952759;28;20226;-39
2024/01/28 01:41:04;;;;;;;16.92;9.48;;;;;;;1.09;100.00;103229.97;4969907;28;20730;-40
2024/01/28 01:43:30;;;;;;;29.20;9.80;;;;;;;1.11;100.00;103239.75;4951008;28;20269;-40
2024/01/28 01:45:56;;;;;;;30.33;10.20;;;;;;;1.16;100.00;103225.00;4969399;28;20209;-39
2024/01/28 01:48:22;;;;;;;33.05;9.68;;;;;;;1.16;100.00;103239.94;4971048;28;20735;-43
2024/01/28 01:50:48;;;;;;;24.15;9.77;;;;;;;1.11;100.00;103250.31;4968596;28;20277;-44
2024/01/28 01:53:14;;;;;;;22.48;9.60;;;;;;;1.07;100.00;103248.38;4969697;28;20268;-43
2024/01/28 01:55:40;;;;;;;28.88;8.98;;;;;;;1.01;100.00;103248.16;4969253;28;20217;-40
2024/01/28 01:58:07;;;;;;;22.17;9.35;;;;;;;1.00;100.00;103252.53;4971115;28;20174;-43
2024/01/28 02:00:34;;;;;;;20.80;9.73;;;;;;;0.96;100.00;103249.69;4955028;28;20181;-42
2024/01/28 02:03:01;;;;;;;30.55;10.43;;;;;;;0.98;100.00;103255.94;4968619;28;20257;-39
2024/01/28 02:05:26;;;;;;;18.98;8.80;;;;;;;0.93;100.00;103252.22;4968802;28;20232;-40
2024/01/28 02:07:52;;;;;;;24.63;9.80;;;;;;;0.92;100.00;103251.34;4946496;28;20207;-39
2024/01/28 02:10:17;;;;;;;27.10;10.25;;;;;;;0.95;100.00;103250.56;4967905;28;20190;-40
2024/01/28 02:12:44;;;;;;;26.98;11.10;;;;;;;0.96;100.00;103250.63;4965781;28;20202;-42
2024/01/28 02:15:10;;;;;;;32.78;13.05;;;;;;;0.86;100.00;103252.81;4968463;28;20645;-41
2024/01/28 02:17:35;;;;;;;26.02;13.00;;;;;;;0.88;100.00;103246.78;4968272;28;20252;-40
2024/01/28 02:20:02;;;;;;;22.52;12.95;;;;;;;0.89;100.00;103239.75;4967895;28;20572;-43
2024/01/28 02:22:28;;;;;;;32.72;14.27;;;;;;;0.84;100.00;103229.00;4955664;28;20194;-42
2024/01/28 02:24:54;;;;;;;30.23;12.80;;;;;;;0.82;100.00;103241.22;4951420;28;20246;-39
2024/01/28 02:27:20;;;;;;;21.75;11.95;;;;;;;0.82;100.00;103234.22;4967183;28;20220;-42
2024/01/28 02:29:45;;;;;;;28.13;11.65;;;;;;;0.85;100.00;103232.53;4966868;28;20182;-40
2024/01/28 02:32:18;;;;;;;24.63;12.45;;;;;;;0.81;100.00;103228.91;4968638;28;20594;-41
2024/01/28 02:34:44;;;;;;;25.90;11.77;;;;;;;0.74;100.00;103224.19;4966292;28;20217;-40
2024/01/28 02:37:10;;;;;;;38.45;12.75;;;;;;;0.71;100.00;103226.72;4950785;28;20236;-41
2024/01/28 02:39:37;;;;;;;24.67;12.10;;;;;;;0.68;100.00;103227.50;4965315;28;20206;-38
2024/01/28 02:42:02;;;;;;;27.42;14.95;;;;;;;0.62;100.00;103221.94;4966167;28;20286;-40
2024/01/28 02:44:29;;;;;;;30.38;14.30;;;;;;;0.64;100.00;103224.66;4968371;28;20296;-39
2024/01/28 02:46:55;;;;;;;30.27;14.43;;;;;;;0.60;100.00;103223.63;4967112;28;20732;-41
2024/01/28 02:49:24;;;;;;;28.63;14.45;;;;;;;0.68;100.00;103232.75;4967843;28;20174;-41
2024/01/28 02:51:50;;;;;;;35.65;15.05;;;;;;;0.60;100.00;103237.72;4968041;28;20537;-42
2024/01/28 02:54:16;;;;;;;27.63;14.18;;;;;;;0.67;100.00;103232.69;4967996;28;20200;-42
2024/01/28 02:56:42;;;;;;;32.60;15.05;;;;;;;0.59;100.00;103228.00;4967462;28;20222;-38
2024/01/28 02:59:08;;;;;;;30.55;16.20;;;;;;;0.60;100.00;103237.72;4969649;28;20690;-39
2024/01/28 03:01:33;;;;;;;32.28;16.00;;;;;;;0.58;100.00;103239.38;4949670;28;20190;-39
2024/01/28 03:03:59;;;;;;;35.40;16.50;;;;;;;0.57;100.00;103240.22;4949004;28;20265;-41
2024/01/28 03:06:24;;;;;;;32.30;15.80;;;;;;;0.60;100.00;103229.78;4968795;28;20202;-40
2024/01/28 03:08:50;;;;;;;34.95;16.10;;;;;;;0.63;100.00;103231.66;4966902;28;20620;-41
2024/01/28 03:11:15;;;;;;;36.08;16.25;;;;;;;0.57;100.00;103234.97;4967473;28;20206;-38
2024/01/28 03:13:40;;;;;;;28.50;16.30;;;;;;;0.59;100.00;103219.16;4972494;28;20178;-43
2024/01/28 03:16:06;;;;;;;27.95;15.25;;;;;;;0.58;100.00;103233.22;4968615;28;20285;-41
2024/01/28 03:18:32;;;;;;;25.73;15.85;;;;;;;0.54;100.00;103223.38;4949775;28;20202;-38
2024/01/28 03:20:57;;;;;;;31.85;15.98;;;;;;;0.55;100.00;103226.06;4967738;28;20232;-40
2024/01/28 03:23:23;;;;;;;39.95;18.52;;;;;;;0.55;100.00;103225.19;4969070;28;20197;-40
2024/01/28 03:25:48;;;;;;;31.05;16.42;;;;;;;0.53;100.00;103221.59;4954922;28;20260;-40
2024/01/28 03:28:14;;;;;;;33.95;16.88;;;;;;;0.56;100.00;103222.59;4972024;28;20178;-42
2024/01/28 03:30:39;;;;;;;33.78;16.88;;;;;;;0.57;100.00;103220.88;4970820;28;20232;-40
2024/01/28 03:33:05;;;;;;;26.05;16.50;;;;;;;0.55;100.00;103212.00;4970272;28;20637;-42
2024/01/28 03:35:30;;;;;;;32.72;16.77;;;;;;;0.56;100.00;103216.41;4974100;28;20704;-42
2024/01/28 03:37:56;;;;;;;43.30;17.75;;;;;;;0.50;100.00;103216.16;4974045;28;20219;-43
2024/01/28 03:40:21;;;;;;;35.22;17.77;;;;;;;0.45;100.00;103221.25;4971250;28;20228;-40
2024/01/28 03:42:47;;;;;;;37.22;17.95;;;;;;;0.46;100.00;103212.50;4972129;28;20216;-40
2024/01/28 03:45:13;;;;;;;29.75;18.05;;;;;;;0.45;100.00;103217.72;4973256;28;20242;-41
2024/01/28 03:47:38;;;;;;;34.22;17.75;;;;;;;0.43;100.00;103215.00;4999105;23;20282;-40
2024/01/28 03:50:05;;;;;;;33.58;17.55;;;;;;;0.39;100.00;103219.25;5002663;28;20223;-42
2024/01/28 03:52:30;;;;;;;31.10;18.13;;;;;;;0.45;100.00;103215.06;5009699;28;20219;-41
2024/01/28 03:54:56;;;;;;;33.05;17.52;;;;;;;0.44;100.00;103216.81;5009815;28;20181;-45
2024/01/28 03:57:21;;;;;;;41.60;18.55;;;;;;;0.44;100.00;103215.88;5009567;28;20227;-46
2024/01/28 03:59:47;;;;;;;38.80;18.23;;;;;;;0.50;100.00;103210.88;5007491;28;20201;-47
2024/01/28 04:02:14;;;;;;;33.58;17.52;;;;;;;0.40;100.00;103209.59;5010718;28;20552;-44
2024/01/28 04:04:40;;;;;;;30.38;17.85;;;;;;;0.46;100.00;103214.22;5010716;28;20181;-44
2024/01/28 04:07:06;;;;;;;30.20;18.02;;;;;;;0.38;100.00;103212.19;5008232;28;20193;-42
2024/01/28 04:09:32;;;;;;;33.67;18.15;;;;;;;0.45;100.00;103201.88;5007860;28;20226;-45
2024/01/28 04:11:59;;;;;;;31.20;18.02;;;;;;;0.44;100.00;103198.34;5006760;28;20179;-42
2024/01/28 04:14:24;;;;;;;34.33;18.13;;;;;;;0.36;100.00;103191.84;5007442;28;20642;-44
2024/01/28 04:16:50;;;;;;;30.70;17.35;;;;;;;0.39;100.00;103197.25;5009017;28;20274;-43
2024/01/28 04:19:16;;;;;;;35.25;17.83;;;;;;;0.35;100.00;103197.94;5010389;28;20201;-45
2024/01/28 04:21:41;;;;;;;34.55;17.13;;;;;;;0.40;100.00;103192.03;5008974;28;20188;-45
2024/01/28 04:24:07;;;;;;;28.15;16.63;;;;;;;0.37;100.00;103204.19;5004576;28;20607;-43
2024/01/28 04:26:33;;;;;;;30.73;18.55;;;;;;;0.37;100.00;103205.13;5010395;28;20284;-44
2024/01/28 04:28:59;;;;;;;36.78;17.45;;;;;;;0.39;100.00;103192.91;5009808;28;20185;-45
2024/01/28 04:31:26;;;;;;;36.20;17.98;;;;;;;0.34;100.00;103186.50;4993785;28;20663;-44
2024/01/28 04:33:54;;;;;;;28.60;16.52;;;;;;;0.32;100.00;103189.91;4989693;28;20172;-44
2024/01/28 04:36:19;;;;;;;35.25;18.25;;;;;;;0.31;100.00;103185.50;5002012;28;20215;-46
2024/01/28 04:38:45;;;;;;;28.75;16.88;;;;;;;0.38;100.00;103182.28;5006879;28;20204;-47
2024/01/28 04:41:10;;;;;;;31.58;17.27;;;;;;;0.33;100.00;103182.09;5006981;28;20207;-45
2024/01/28 04:43:38;;;;;;;25.77;16.67;;;;;;;0.35;100.00;103177.78;5009935;28;20187;-45
2024/01/28 04:46:04;;;;;;;40.42;16.98;;;;;;;0.36;100.00;103179.56;5009503;28;20200;-45
2024/01/28 04:48:29;;;;;;;33.97;16.92;;;;;;;0.39;100.00;103181.41;4993964;28;20669;-44
2024/01/28 04:50:55;;;;;;;32.15;16.70;;;;;;;0.37;100.00;103180.47;4989842;28;20184;-43
2024/01/28 04:53:21;;;;;;;38.17;17.13;;;;;;;0.22;100.00;103170.19;4993039;28;20407;-44
2024/01/28 04:55:46;;;;;;;30.67;16.83;;;;;;;0.29;100.00;103171.34;4993658;28;20199;-46
2024/01/28 04:58:12;;;;;;;27.38;15.82;;;;;;;0.34;100.00;103173.31;5009365;28;20186;-44
2024/01/28 05:00:37;;;;;;;30.05;17.15;;;;;;;0.40;100.00;103172.69;5009852;28;20635;-43
2024/01/28 05:03:03;;;;;;;33.35;17.10;;;;;;;0.36;100.00;103189.22;5006766;28;20182;-46
2024/01/28 05:05:28;;;;;;;32.08;17.33;;;;;;;0.39;100.00;103182.34;4989399;28;20580;-44
2024/01/28 05:07:54;;;;;;;27.90;16.35;;;;;;;0.31;100.00;103170.56;5008304;28;20187;-45
2024/01/28 05:10:19;;;;;;;33.42;17.13;;;;;;;0.34;100.00;103181.22;5009755;28;20701;-47
2024/01/28 05:12:45;;;;;;;27.75;16.02;;;;;;;0.35;100.00;103185.69;5006000;28;20323;-42
2024/01/28 05:15:14;;;;;;;31.55;16.35;;;;;;;0.37;100.00;103165.56;5004735;28;20331;-42
2024/01/28 05:17:39;;;;;;;31.70;16.33;;;;;;;0.30;100.00;103160.84;5005349;28;20479;-43
2024/01/28 05:20:08;;;;;;;28.38;15.50;;;;;;;0.32;100.00;103166.19;5008569;28;20185;-44
2024/01/28 05:22:34;;;;;;;31.52;16.17;;;;;;;0.30;100.00;103181.94;5009257;28;20607;-44
2024/01/28 05:25:02;;;;;;;28.35;15.70;;;;;;;0.23;100.00;103168.44;5007556;28;20199;-44
2024/01/28 05:27:29;;;;;;;26.25;15.70;;;;;;;0.23;100.00;103179.88;5009392;28;20209;-42
2024/01/28 05:29:55;;;;;;;26.42;15.35;;;;;;;0.15;100.00;103174.31;5006546;28;20307;-46
2024/01/28 05:32:21;;;;;;;25.38;15.88;;;;;;;0.20;100.00;103177.13;5009014;28;20189;-49
2024/01/28 05:34:47;;;;;;;27.55;15.40;;;;;;;0.20;100.00;103174.50;5008035;28;20172;-44
2024/01/28 05:37:15;;;;;;;32.65;15.48;;;;;;;0.18;100.00;103166.53;5007991;28;20210;-43
2024/01/28 05:39:41;;;;;;;32.33;14.88;;;;;;;0.15;100.00;103160.19;5008785;28;20255;-43
2024/01/28 05:42:06;;;;;;;29.38;15.13;;;;;;;0.13;100.00;103164.50;5007998;28;20196;-42
2024/01/28 05:44:32;;;;;;;27.25;15.50;;;;;;;0.12;100.00;103160.09;5008615;28;20184;-46
2024/01/28 05:46:58;;;;;;;36.58;15.85;;;;;;;0.11;100.00;103163.53;5004763;28;20188;-43
2024/01/28 05:49:23;;;;;;;27.23;15.57;;;;;;;0.06;100.00;103165.09;5008751;28;20185;-44
2024/01/28 05:51:49;;;;;;;26.52;14.80;;;;;;;0.07;100.00;103166.91;5007731;28;20211;-46
2024/01/28 05:54:14;;;;;;;28.13;15.30;;;;;;;0.08;100.00;103168.69;5008449;28;20191;-48
2024/01/28 05:56:39;;;;;;;31.10;15.18;;;;;;;0.07;100.00;103161.63;5006973;28;20601;-45
2024/01/28 05:59:05;;;;;;;25.98;15.93;;;;;;;0.04;100.00;103161.50;5005296;28;20196;-46
2024/01/28 06:01:30;;;;;;;28.08;15.25;;;;;;;0.02;100.00;103160.53;5008444;28;20360;-45
2024/01/28 06:03:56;;;;;;;29.25;16.17;;;;;;;-0.03;100.00;103171.75;5007317;28;20502;-47
2024/01/28 06:06:21;;;;;;;31.20;16.00;;;;;;;-0.07;100.00;103168.94;5007790;28;20200;-48
2024/01/28 06:08:47;;;;;;;31.77;15.27;;;;;;;-0.10;100.00;103169.69;5006339;28;20172;-44
2024/01/28 06:11:12;;;;;;;31.95;15.32;;;;;;;-0.11;100.00;103175.81;5006362;28;20188;-44
2024/01/28 06:13:37;;;;;;;34.40;15.70;;;;;;;-0.14;100.00;103167.75;5007431;28;20189;-44
2024/01/28 06:16:05;;;;;;;27.33;14.95;;;;;;;-0.12;100.00;103183.66;4990184;28;20201;-42
2024/01/28 06:18:30;;;;;;;38.60;17.25;;;;;;;-0.14;100.00;103188.84;4993673;28;20559;-46
2024/01/28 06:20:56;;;;;;;32.22;15.52;;;;;;;-0.19;100.00;103177.22;5006539;28;20180;-46
2024/01/28 06:23:21;;;;;;;33.75;16.15;;;;;;;-0.25;100.00;103169.94;4988220;28;20172;-43
2024/01/28 06:25:47;;;;;;;25.42;15.02;;;;;;;-0.16;100.00;103172.06;5006452;28;20292;-44
2024/01/28 06:28:12;;;;;;;29.88;15.15;;;;;;;-0.10;100.00;103174.97;5007119;28;20184;-43
2024/01/28 06:30:37;;;;;;;26.30;14.90;;;;;;;-0.16;100.00;103174.69;5007941;28;20214;-44
2024/01/28 06:33:04;;;;;;;24.00;14.73;;;;;;;-0.22;100.00;103166.53;5008155;28;20172;-42
2024/01/28 06:35:29;;;;;;;29.35;15.48;;;;;;;-0.37;100.00;103163.22;5008144;28;20591;-45
2024/01/28 06:37:55;;;;;;;35.40;16.40;;;;;;;-0.34;100.00;103172.16;5004732;28;20216;-44
2024/01/28 06:40:20;;;;;;;32.78;15.80;;;;;;;-0.30;100.00;103179.38;5005181;28;20188;-46
2024/01/28 06:42:46;;;;;;;34.72;15.13;;;;;;;-0.40;100.00;103174.50;5004444;28;20177;-43
2024/01/28 06:45:12;;;;;;;38.13;15.90;;;;;;;-0.43;100.00;103164.75;5006730;28;20183;-46
2024/01/28 06:47:37;;;;;;;30.42;15.73;;;;;;;-0.38;100.00;103164.94;5006797;28;20213;-49
2024/01/28 06:50:03;;;;;;;31.83;15.63;;;;;;;-0.38;100.00;103156.16;5005406;28;20181;-43
2024/01/28 06:52:29;;;;;;;27.60;15.52;;;;;;;-0.40;100.00;103157.81;5005506;28;20168;-48
2024/01/28 06:54:55;;;;;;;33.40;16.67;;;;;;;-0.38;100.00;103145.63;4990902;28;20715;-42
2024/01/28 06:57:20;;;;;;;37.22;16.20;;;;;;;-0.39;100.00;103144.72;5006844;28;20229;-43
2024/01/28 06:59:46;;;;;;;32.50;16.40;;;;;;;-0.31;100.00;103147.69;5009361;28;20204;-47
2024/01/28 07:02:12;;;;;;;36.20;16.70;;;;;;;-0.26;100.00;103141.81;5010055;28;20243;-42
2024/01/28 07:04:38;;;;;;;44.28;16.20;;;;;;;-0.25;100.00;103147.97;5012183;28;20268;-46
2024/01/28 07:07:04;;;;;;;34.40;15.52;;;;;;;-0.14;100.00;103144.06;5009791;28;20212;-43
2024/01/28 07:09:30;;;;;;;32.83;15.73;;;;;;;-0.14;100.00;103157.22;5010638;28;20243;-42
2024/01/28 07:11:56;;;;;;;27.20;14.65;;;;;;;-0.10;100.00;103169.69;5010314;28;20189;-43
2024/01/28 07:14:22;;;;;;;28.77;15.02;;;;;;;-0.11;100.00;103162.66;5008708;28;20177;-45
2024/01/28 07:16:48;;;;;;;37.78;16.17;;;;;;;-0.09;100.00;103165.31;5009976;28;20196;-47
2024/01/28 07:19:13;;;;;;;29.80;15.00;;;;;;;-0.13;100.00;103169.59;5009859;28;20729;-48
2024/01/28 07:21:39;;;;;;;26.52;15.15;;;;;;;-0.22;100.00;103159.53;5009700;28;20257;-47
2024/01/28 07:24:05;;;;;;;26.38;13.73;;;;;;;-0.30;100.00;103158.31;5010920;28;20714;-43
2024/01/28 07:26:30;;;;;;;31.95;13.90;;;;;;;-0.33;100.00;103171.34;5011344;28;20204;-43
2024/01/28 07:28:56;;;;;;;31.10;15.18;;;;;;;-0.47;100.00;103167.19;5010872;28;20637;-44
2024/01/28 07:31:21;;;;;;;28.55;13.93;;;;;;;-0.46;100.00;103168.97;5009952;28;20185;-43
2024/01/28 07:33:47;;;;;;;30.15;13.23;;;;;;;-0.52;100.00;103168.72;4994879;28;20217;-45
2024/01/28 07:36:12;;;;;;;25.40;13.70;;;;;;;-0.54;100.00;103173.91;4991610;28;20594;-44
2024/01/28 07:38:38;;;;;;;24.15;13.65;;;;;;;-0.47;100.00;103161.91;5009752;28;20197;-46
2024/01/28 07:41:03;;;;;;;26.05;13.93;;;;;;;-0.53;100.00;103162.53;4995646;28;20185;-43
2024/01/28 07:43:29;;;;;;;29.80;13.77;;;;;;;-0.56;100.00;103167.66;5010297;28;20774;-45
2024/01/28 07:45:55;;;;;;;28.73;14.45;;;;;;;-0.60;100.00;103162.19;5010820;28;20199;-41
2024/01/28 07:48:20;;;;;;;27.25;13.27;;;;;;;-0.51;100.00;103159.97;5009735;28;20200;-45
2024/01/28 07:50:46;;;;;;;22.20;12.60;;;;;;;-0.53;100.00;103157.25;5009986;28;20263;-47
2024/01/28 07:53:12;;;;;;;25.77;13.38;;;;;;;-0.55;100.00;103145.75;5010084;28;20255;-44
2024/01/28 07:55:38;;;;;;;24.17;14.15;;;;;;;-0.63;100.00;103152.44;5009727;28;20200;-47
2024/01/28 07:58:03;;;;;;;31.45;15.15;;;;;;;-0.60;100.00;103167.47;5009934;28;20195;-44
2024/01/28 08:00:29;;;;;;;29.35;15.98;;;;;;;-0.57;100.00;103159.69;5001753;28;20199;-50
2024/01/28 08:02:54;;;;;;;28.65;14.63;;;;;;;-0.51;100.00;103166.13;4997493;28;20195;-46
2024/01/28 08:05:20;;;;;;;28.13;14.68;;;;;;;-0.45;100.00;103157.63;4997093;28;20928;-47
2024/01/28 08:07:45;;;;;;;36.03;14.50;;;;;;;-0.47;100.00;103159.28;4997465;28;20200;-48
2024/01/28 08:10:11;;;;;;;30.13;14.48;;;;;;;-0.60;100.00;103147.28;4996946;28;20264;-45
2024/01/28 08:12:36;;;;;;;30.98;15.02;;;;;;;-0.71;100.00;103152.06;4995554;28;20210;-49
2024/01/28 08:15:02;;;;;;;30.90;14.55;;;;;;;-0.64;100.00;103142.72;4996575;28;20189;-46
2024/01/28 08:17:29;;;;;;;22.90;14.73;;;;;;;-0.68;100.00;103160.13;5006731;28;21412;-46
2024/01/28 08:19:54;;;;;;;24.30;14.32;;;;;;;-0.46;100.00;103163.69;5009546;28;20211;-46
2024/01/28 08:22:20;;;;;;;30.40;15.40;;;;;;;-0.49;100.00;103159.22;5009616;28;20201;-44
2024/01/28 08:24:45;;;;;;;34.63;16.58;;;;;;;-0.34;100.00;103155.47;5009863;28;20651;-43
2024/01/28 08:27:11;;;;;;;33.35;15.20;;;;;;;-0.31;100.00;103158.22;5009247;28;20262;-50
2024/01/28 08:29:37;;;;;;;37.50;16.50;;;;;;;-0.19;100.00;103163.16;5009229;28;20170;-44
2024/01/28 08:32:04;;;;;;;31.25;15.27;;;;;;;-0.11;100.00;103157.38;5009453;28;20172;-42
2024/01/28 08:34:29;;;;;;;34.30;15.10;;;;;;;-0.03;100.00;103161.22;5008960;28;20203;-49
2024/01/28 08:36:54;;;;;;;45.15;16.60;;;;;;;0.16;100.00;103159.38;5009948;28;20578;-44
2024/01/28 08:39:20;;;;;;;30.98;15.07;;;;;;;0.31;100.00;103161.78;5008925;28;20280;-44
2024/01/28 08:41:45;;;;;;;32.72;17.17;;;;;;;0.48;100.00;103165.06;5007196;28;20343;-43
2024/01/28 08:44:11;;;;;;;33.63;16.08;;;;;;;0.46;100.00;103145.66;5005615;28;20628;-46
2024/01/28 08:46:40;;;;;;;31.80;15.13;;;;;;;0.58;100.00;103162.00;4992410;28;20200;-45
2024/01/28 08:49:06;;;;;;;30.13;14.23;;;;;;;0.66;100.00;103146.50;5009519;28;20176;-45
2024/01/28 08:51:31;;;;;;;33.83;14.73;;;;;;;0.76;100.00;103138.97;5007532;28;20219;-46
2024/01/28 08:53:57;;;;;;;33.95;13.63;;;;;;;0.84;100.00;103126.09;4993052;28;20181;-46
2024/01/28 08:56:22;;;;;;;27.45;13.60;;;;;;;0.97;100.00;103116.91;5008311;28;20196;-44
2024/01/28 08:58:48;;;;;;;26.75;12.98;;;;;;;1.11;100.00;103125.34;5008909;28;20238;-44
2024/01/28 09:01:13;;;;;;;22.48;11.48;;;;;;;1.26;100.00;103120.63;5009505;28;20204;-47
2024/01/28 09:03:39;;;;;;;29.33;11.30;;;;;;;1.37;100.00;103131.59;5009655;28;20186;-45
2024/01/28 09:06:06;;;;;;;28.83;12.30;;;;;;;1.44;100.00;103123.03;5009652;28;20219;-45
2024/01/28 09:08:32;;;;;;;25.65;11.07;;;;;;;1.48;100.00;103126.69;5008126;28;20268;-45
2024/01/28 09:10:58;;;;;;;27.40;11.75;;;;;;;1.69;100.00;103134.50;4992372;28;20254;-43
2024/01/28 09:13:24;;;;;;;28.27;11.68;;;;;;;1.70;100.00;103118.69;5009567;28;20184;-45
2024/01/28 09:15:50;;;;;;;22.50;10.93;;;;;;;1.52;100.00;103125.97;5007482;28;20755;-45
2024/01/28 09:18:15;;;;;;;24.83;10.63;;;;;;;1.64;100.00;103127.31;5008042;28;20637;-46
2024/01/28 09:20:41;;;;;;;30.90;10.85;;;;;;;1.58;100.00;103124.44;5005695;28;20208;-46
2024/01/28 09:23:07;;;;;;;20.05;11.02;;;;;;;1.69;100.00;103123.94;5008348;28;20183;-46
2024/01/28 09:25:33;;;;;;;28.80;10.30;;;;;;;1.82;100.00;103119.13;5008212;28;20280;-43
2024/01/28 09:27:59;;;;;;;24.63;10.13;;;;;;;1.81;100.00;103127.00;5009500;28;20180;-45
2024/01/28 09:30:25;;;;;;;25.85;10.00;;;;;;;1.90;100.00;103119.38;5009443;28;20678;-46
2024/01/28 09:32:51;;;;;;;30.90;11.05;;;;;;;1.97;100.00;103118.78;5009454;28;20191;-42
2024/01/28 09:35:16;;;;;;;22.73;10.00;;;;;;;2.01;100.00;103107.44;5009012;28;20274;-45
2024/01/28 09:37:42;;;;;;;22.45;9.18;;;;;;;2.20;100.00;103121.28;5000365;28;20185;-47
2024/01/28 09:40:10;;;;;;;22.65;9.95;;;;;;;2.20;100.00;103106.31;4996690;28;20330;-46
2024/01/28 09:42:51;;;;;;;25.95;10.32;;;;;;;2.18;100.00;103109.75;4996197;28;20199;-45
2024/01/28 09:45:16;;;;;;;19.98;9.43;;;;;;;2.24;100.00;103109.97;4995553;28;20177;-48
2024/01/28 09:47:43;;;;;;;20.95;9.23;;;;;;;2.41;100.00;103103.47;4995425;28;20701;-43
2024/01/28 09:50:11;;;;;;;19.17;8.93;;;;;;;2.60;100.00;103091.72;4995930;28;20192;-44
2024/01/28 09:52:37;;;;;;;19.52;8.20;;;;;;;2.85;100.00;103101.31;4995734;28;20176;-43
2024/01/28 09:55:04;;;;;;;24.98;8.18;;;;;;;2.74;100.00;103099.19;4995815;28;20670;-46
2024/01/28 09:57:30;;;;;;;21.67;7.65;;;;;;;2.74;100.00;103097.44;5006615;28;20221;-44
2024/01/28 09:59:56;;;;;;;16.92;6.85;;;;;;;2.78;100.00;103099.34;4991320;28;20195;-44
2024/01/28 10:02:22;;;;;;;19.85;8.20;;;;;;;2.97;100.00;103094.56;5008466;28;20227;-41
2024/01/28 10:04:48;;;;;;;21.92;8.25;;;;;;;3.14;100.00;103098.63;4991392;28;20172;-42
2024/01/28 10:07:15;;;;;;;15.93;8.00;;;;;;;3.41;100.00;103089.66;5006997;28;20224;-44
2024/01/28 10:09:41;;;;;;;18.50;6.32;;;;;;;3.47;100.00;103088.06;5005835;28;20200;-42
2024/01/28 10:12:09;;;;;;;21.90;7.05;;;;;;;3.62;100.00;103079.63;5007728;28;20613;-44
2024/01/28 10:14:34;;;;;;;16.10;6.68;;;;;;;3.59;100.00;103079.56;5008231;28;20192;-47
2024/01/28 10:16:59;;;;;;;20.70;6.05;;;;;;;3.66;100.00;103057.66;5008634;28;20251;-44
2024/01/28 10:19:25;;;;;;;19.05;6.40;;;;;;;3.56;100.00;103049.41;5008779;28;20266;-44
2024/01/28 10:21:51;;;;;;;17.20;5.65;;;;;;;3.65;100.00;103054.97;5008787;28;20192;-42
2024/01/28 10:24:19;;;;;;;14.13;5.80;;;;;;;3.72;100.00;103059.59;5007888;28;20196;-43
2024/01/28 10:26:45;;;;;;;15.10;5.28;;;;;;;3.81;100.00;103041.25;5007463;28;20575;-45
2024/01/28 10:29:12;;;;;;;20.70;5.85;;;;;;;3.80;100.00;103044.75;5008647;28;20177;-46
2024/01/28 10:31:38;;;;;;;16.73;5.38;;;;;;;3.79;100.00;103028.81;5008123;28;20267;-46
2024/01/28 10:34:04;;;;;;;11.60;4.90;;;;;;;3.86;100.00;103017.50;4991723;28;20669;-44
2024/01/28 10:36:33;;;;;;;15.73;5.28;;;;;;;3.84;100.00;103008.63;5012858;28;20208;-46
2024/01/28 10:39:03;;;;;;;11.75;5.13;;;;;;;3.86;100.00;103009.56;5010762;28;20815;-48
2024/01/28 10:41:30;;;;;;;14.20;5.10;;;;;;;3.84;100.00;103016.56;5012026;28;20188;-45
2024/01/28 10:43:58;;;;;;;13.23;4.65;;;;;;;3.72;100.00;103012.75;4997918;28;20599;-46
2024/01/28 10:46:36;;;;;;;13.88;4.82;;;;;;;3.72;100.00;103009.22;5010840;28;20263;-42
2024/01/28 10:49:09;;;;;;;9.20;4.07;;;;;;;3.99;100.00;103000.13;5012098;28;20200;-47
2024/01/28 10:51:39;;;;;;;12.93;4.72;;;;;;;3.90;100.00;102992.84;5012388;28;20806;-43
2024/01/28 10:54:09;;;;;;;16.05;4.80;;;;;;;3.96;100.00;102981.47;5012177;28;20191;-43
2024/01/28 10:56:39;;;;;;;12.70;4.70;;;;;;;4.00;100.00;102975.41;5011572;28;20215;-43
2024/01/28 10:59:05;;;;;;;12.00;4.05;;;;;;;4.17;100.00;102976.69;5009631;28;20207;-44
2024/01/28 11:01:33;;;;;;;12.20;4.43;;;;;;;4.19;100.00;102974.97;5011922;28;20614;-45
2024/01/28 11:04:00;;;;;;;10.20;3.88;;;;;;;4.21;100.00;102962.63;5013799;28;20192;-41